createdAt,value
2023-01-07T00:01:57.054Z,114.63
2023-01-07T00:04:27.174Z,116.80
2023-01-07T00:06:57.433Z,116.83
2023-01-07T00:09:27.919Z,116.60
2023-01-07T00:11:58.040Z,115.67
2023-01-07T00:14:28.360Z,115.37
2023-01-07T00:17:00.413Z,111.30
2023-01-07T00:19:30.635Z,111.90
2023-01-07T00:22:00.674Z,112.63
2023-01-07T00:24:30.975Z,114.57
2023-01-07T00:27:01.309Z,113.77
2023-01-07T00:29:31.839Z,114.33
2023-01-07T00:32:03.616Z,110.40
2023-01-07T00:34:34.018Z,101.33
2023-01-07T00:37:17.976Z,101.50
2023-01-07T00:39:48.288Z,98.73
2023-01-07T00:42:35.608Z,97.60
2023-01-07T00:45:06.352Z,97.03
2023-01-07T00:47:38.617Z,93.67
2023-01-07T00:50:09.857Z,90.70
2023-01-07T00:52:40.642Z,92.33
2023-01-07T00:55:12.671Z,91.17
2023-01-07T00:57:43.080Z,87.30
2023-01-07T01:00:17.102Z,88.17
2023-01-07T01:02:49.649Z,87.93
2023-01-07T01:05:20.805Z,86.00
2023-01-07T01:07:51.340Z,85.87
2023-01-07T01:10:22.580Z,83.33
2023-01-07T01:12:53.118Z,77.53
2023-01-07T01:15:25.891Z,77.13
2023-01-07T01:17:58.887Z,67.67
2023-01-07T01:20:29.299Z,65.07
2023-01-07T01:22:59.423Z,59.87
2023-01-07T01:25:29.763Z,58.40
2023-01-07T01:28:00.603Z,59.50
2023-01-07T01:30:31.229Z,56.40
2023-01-07T01:33:04.723Z,57.97
2023-01-07T01:35:35.097Z,53.23
2023-01-07T01:38:05.987Z,53.20
2023-01-07T01:40:36.502Z,55.43
2023-01-07T01:43:23.316Z,54.27
2023-01-07T01:45:53.544Z,51.37
2023-01-07T01:48:25.742Z,48.73
2023-01-07T01:50:57.663Z,48.97
2023-01-07T01:53:31.164Z,50.03
2023-01-07T01:56:05.065Z,49.60
2023-01-07T01:58:39.083Z,49.33
2023-01-07T02:01:10.175Z,49.63
2023-01-07T02:03:42.402Z,49.27
2023-01-07T02:06:25.225Z,47.30
2023-01-07T02:08:56.865Z,47.23
2023-01-07T02:11:42.881Z,46.70
2023-01-07T02:14:26.101Z,47.07
2023-01-07T02:17:02.143Z,46.80
2023-01-07T02:20:16.807Z,45.73
2023-01-07T02:23:37.404Z,46.57
2023-01-07T02:27:04.164Z,45.53
2023-01-07T02:30:18.522Z,44.10
2023-01-07T02:33:20.980Z,45.27
2023-01-07T02:36:14.562Z,43.73
2023-01-07T02:38:58.292Z,44.20
2023-01-07T02:41:36.096Z,43.73
2023-01-07T02:44:11.143Z,44.23
2023-01-07T02:46:46.407Z,43.90
2023-01-07T02:49:20.284Z,44.17
2023-01-07T02:51:53.565Z,43.87
2023-01-07T02:54:25.989Z,43.60
2023-01-07T02:57:37.140Z,42.60
2023-01-07T03:00:28.533Z,41.97
2023-01-07T03:03:16.585Z,43.23
2023-01-07T03:06:01.543Z,44.77
2023-01-07T03:08:47.762Z,43.67
2023-01-07T03:11:21.644Z,43.53
2023-01-07T03:14:02.829Z,42.90
2023-01-07T03:16:37.097Z,42.03
2023-01-07T03:19:12.320Z,44.33
2023-01-07T03:21:43.009Z,43.83
2023-01-07T03:24:15.679Z,43.70
2023-01-07T03:26:48.683Z,43.90
2023-01-07T03:29:21.067Z,41.83
2023-01-07T03:31:58.832Z,42.90
2023-01-07T03:34:31.952Z,42.60
2023-01-07T03:37:05.544Z,42.20
2023-01-07T03:39:40.360Z,41.93
2023-01-07T03:42:30.151Z,42.63
2023-01-07T03:45:02.219Z,42.67
2023-01-07T03:47:36.571Z,41.47
2023-01-07T03:50:08.279Z,42.00
2023-01-07T03:52:41.075Z,43.20
2023-01-07T03:55:13.643Z,43.53
2023-01-07T03:57:44.280Z,42.67
2023-01-07T04:00:17.558Z,42.13
2023-01-07T04:02:55.781Z,44.43
2023-01-07T04:05:31.122Z,42.47
2023-01-07T04:08:02.167Z,40.97
2023-01-07T04:10:38.221Z,42.53
2023-01-07T04:13:08.654Z,41.77
2023-01-07T04:15:39.689Z,42.53
2023-01-07T04:18:10.953Z,42.33
2023-01-07T04:20:41.456Z,41.03
2023-01-07T04:23:11.988Z,42.10
2023-01-07T04:25:44.053Z,43.57
2023-01-07T04:28:15.093Z,43.67
2023-01-07T04:30:45.438Z,42.97
2023-01-07T04:33:15.694Z,41.50
2023-01-07T04:35:48.732Z,43.03
2023-01-07T04:38:23.351Z,42.70
2023-01-07T04:40:55.251Z,41.57
2023-01-07T04:43:26.159Z,40.33
2023-01-07T04:45:57.281Z,38.37
2023-01-07T04:48:27.608Z,39.43
2023-01-07T04:50:57.930Z,39.90
2023-01-07T04:53:34.105Z,40.93
2023-01-07T04:56:08.918Z,40.63
2023-01-07T04:58:40.680Z,40.77
2023-01-07T05:01:11.946Z,42.07
2023-01-07T05:03:42.979Z,40.83
2023-01-07T05:06:13.914Z,42.10
2023-01-07T05:08:44.788Z,41.47
2023-01-07T05:11:22.133Z,40.40
2023-01-07T05:13:55.533Z,41.30
2023-01-07T05:16:28.173Z,42.13
2023-01-07T05:19:02.014Z,42.97
2023-01-07T05:21:34.426Z,43.43
2023-01-07T05:24:04.723Z,43.77
2023-01-07T05:26:36.582Z,43.87
2023-01-07T05:29:07.408Z,44.73
2023-01-07T05:31:37.836Z,45.07
2023-01-07T05:34:08.568Z,45.23
2023-01-07T05:36:39.922Z,45.00
2023-01-07T05:39:10.137Z,44.07
2023-01-07T05:41:42.618Z,44.67
2023-01-07T05:44:12.834Z,45.03
2023-01-07T05:46:43.261Z,44.20
2023-01-07T05:49:13.779Z,46.60
2023-01-07T05:51:43.924Z,46.47
2023-01-07T05:54:14.140Z,44.07
2023-01-07T05:56:46.091Z,43.30
2023-01-07T05:59:16.414Z,42.93
2023-01-07T06:01:46.428Z,43.93
2023-01-07T06:04:16.753Z,44.00
2023-01-07T06:06:46.768Z,45.50
2023-01-07T06:09:16.998Z,45.67
2023-01-07T06:11:49.155Z,44.70
2023-01-07T06:14:19.751Z,45.20
2023-01-07T06:16:51.137Z,44.10
2023-01-07T06:19:23.410Z,44.13
2023-01-07T06:21:53.629Z,43.07
2023-01-07T06:24:23.962Z,44.50
2023-01-07T06:26:55.817Z,44.20
2023-01-07T06:29:26.042Z,43.83
2023-01-07T06:31:56.466Z,42.10
2023-01-07T06:34:26.720Z,42.50
2023-01-07T06:36:57.221Z,41.20
2023-01-07T06:39:27.937Z,40.40
2023-01-07T06:42:00.112Z,40.53
2023-01-07T06:44:30.689Z,38.67
2023-01-07T06:47:00.759Z,37.60
2023-01-07T06:49:31.175Z,38.37
2023-01-07T06:52:01.512Z,38.57
2023-01-07T06:54:31.838Z,37.67
2023-01-07T06:57:03.476Z,36.73
2023-01-07T06:59:33.645Z,36.83
2023-01-07T07:02:04.150Z,37.17
2023-01-07T07:04:34.254Z,37.33
2023-01-07T07:07:04.279Z,35.67
2023-01-07T07:09:34.601Z,36.93
2023-01-07T07:12:07.694Z,35.73
2023-01-07T07:14:38.207Z,36.93
2023-01-07T07:17:08.739Z,34.93
2023-01-07T07:19:39.163Z,34.67
2023-01-07T07:22:09.589Z,35.17
2023-01-07T07:24:40.017Z,35.23
2023-01-07T07:27:14.032Z,32.30
2023-01-07T07:29:44.465Z,31.87
2023-01-07T07:32:14.370Z,31.63
2023-01-07T07:34:44.680Z,33.23
2023-01-07T07:37:14.613Z,31.67
2023-01-07T07:39:44.925Z,35.03
2023-01-07T07:42:16.996Z,34.13
2023-01-07T07:44:48.045Z,35.60
2023-01-07T07:47:18.270Z,30.83
2023-01-07T07:49:48.689Z,26.90
2023-01-07T07:52:19.199Z,27.07
2023-01-07T07:54:49.637Z,27.60
2023-01-07T07:57:27.336Z,25.17
2023-01-07T07:59:58.876Z,24.90
2023-01-07T08:02:29.107Z,24.47
2023-01-07T08:04:59.515Z,23.73
2023-01-07T08:07:32.773Z,25.40
2023-01-07T08:10:06.214Z,24.87
2023-01-07T08:12:39.834Z,26.57
2023-01-07T08:15:12.594Z,25.07
2023-01-07T08:17:43.088Z,25.40
2023-01-07T08:20:14.385Z,26.20
2023-01-07T08:22:44.591Z,26.30
2023-01-07T08:25:14.828Z,24.60
2023-01-07T08:27:58.354Z,23.53
2023-01-07T08:30:29.496Z,24.23
2023-01-07T08:33:00.179Z,25.17
2023-01-07T08:35:30.346Z,24.80
2023-01-07T08:38:05.089Z,23.97
2023-01-07T08:40:35.510Z,23.40
2023-01-07T08:43:08.798Z,22.97
2023-01-07T08:45:41.067Z,24.00
2023-01-07T08:48:11.394Z,23.13
2023-01-07T08:50:42.568Z,23.00
2023-01-07T08:53:14.396Z,24.40
2023-01-07T08:55:45.225Z,22.87
2023-01-07T08:58:17.707Z,22.60
2023-01-07T09:00:48.282Z,23.40
2023-01-07T09:03:18.457Z,21.63
2023-01-07T09:05:49.597Z,21.87
2023-01-07T09:08:19.924Z,23.87
2023-01-07T09:10:50.558Z,24.20
2023-01-07T09:13:22.309Z,24.17
2023-01-07T09:15:53.706Z,23.97
2023-01-07T09:18:24.097Z,25.37
2023-01-07T09:20:54.754Z,24.20
2023-01-07T09:23:24.838Z,23.93
2023-01-07T09:25:54.954Z,25.43
2023-01-07T09:28:29.389Z,24.57
2023-01-07T09:31:00.616Z,23.17
2023-01-07T09:33:31.066Z,22.93
2023-01-07T09:36:02.284Z,23.47
2023-01-07T09:38:33.635Z,22.10
2023-01-07T09:41:04.659Z,21.97
2023-01-07T09:43:59.690Z,20.83
2023-01-07T09:46:33.075Z,21.43
2023-01-07T09:49:05.958Z,19.80
2023-01-07T09:51:41.142Z,20.70
2023-01-07T09:54:22.377Z,20.33
2023-01-07T09:56:53.315Z,20.70
2023-01-07T09:59:24.993Z,20.27
2023-01-07T10:02:00.005Z,20.63
2023-01-07T10:04:39.048Z,20.07
2023-01-07T10:07:18.676Z,20.70
2023-01-07T10:10:04.983Z,20.33
2023-01-07T10:12:43.427Z,21.53
2023-01-07T10:15:40.945Z,20.97
2023-01-07T10:18:40.868Z,20.87
2023-01-07T10:21:18.975Z,22.10
2023-01-07T10:23:51.649Z,22.13
2023-01-07T10:26:32.824Z,23.07
2023-01-07T10:33:25.603Z,25.47
2023-01-07T10:36:03.645Z,25.27
2023-01-07T10:38:39.456Z,23.77
2023-01-07T10:41:15.730Z,24.40
2023-01-07T10:44:02.225Z,24.20
2023-01-07T10:46:45.865Z,22.67
2023-01-07T10:49:35.956Z,22.90
2023-01-07T10:52:27.475Z,22.57
2023-01-07T10:55:14.391Z,24.97
2023-01-07T10:57:44.915Z,22.27
2023-01-07T11:00:17.904Z,22.20
2023-01-07T11:02:53.503Z,23.93
2023-01-07T11:05:27.789Z,24.17
2023-01-07T11:08:02.184Z,24.63
2023-01-07T11:10:35.587Z,24.03
2023-01-07T11:13:11.125Z,21.93
2023-01-07T11:15:47.700Z,22.93
2023-01-07T11:18:23.644Z,24.63
2023-01-07T11:20:56.959Z,25.40
2023-01-07T11:23:38.736Z,24.37
2023-01-07T11:26:22.214Z,25.13
2023-01-07T11:28:56.898Z,23.70
2023-01-07T11:31:47.944Z,24.43
2023-01-07T11:34:22.228Z,24.73
2023-01-07T11:36:54.595Z,25.93
2023-01-07T11:39:26.458Z,23.60
2023-01-07T11:42:00.519Z,24.60
2023-01-07T11:44:30.896Z,27.00
2023-01-07T11:47:01.476Z,29.03
2023-01-07T11:49:33.014Z,25.53
2023-01-07T11:52:05.238Z,22.37
2023-01-07T11:54:35.879Z,22.13
2023-01-07T11:57:21.351Z,23.40
2023-01-07T12:00:07.275Z,24.67
2023-01-07T12:02:37.729Z,23.67
2023-01-07T12:05:24.004Z,22.90
2023-01-07T12:07:58.181Z,24.47
2023-01-07T12:10:35.262Z,24.20
2023-01-07T12:13:08.456Z,24.53
2023-01-07T12:15:50.755Z,24.23
2023-01-07T12:18:43.604Z,23.77
2023-01-07T12:21:32.879Z,24.73
2023-01-07T12:24:20.605Z,24.37
2023-01-07T12:26:57.795Z,23.73
2023-01-07T12:29:42.755Z,23.70
2023-01-07T12:32:24.965Z,23.07
2023-01-07T12:35:14.341Z,23.67
2023-01-07T12:37:57.253Z,23.53
2023-01-07T12:40:35.459Z,23.07
2023-01-07T12:43:23.295Z,22.97
2023-01-07T12:45:57.754Z,24.07
2023-01-07T12:48:38.105Z,23.43
2023-01-07T12:51:16.487Z,23.43
2023-01-07T12:53:52.648Z,24.53
2023-01-07T12:56:29.534Z,24.17
2023-01-07T12:59:05.177Z,22.20
2023-01-07T13:01:39.242Z,23.70
2023-01-07T13:04:18.789Z,24.30
2023-01-07T13:06:55.312Z,22.00
2023-01-07T13:09:32.065Z,25.17
2023-01-07T13:12:40.601Z,24.93
2023-01-07T13:15:21.565Z,23.57
2023-01-07T13:17:55.167Z,24.60
2023-01-07T13:20:43.311Z,24.50
2023-01-07T13:23:23.050Z,22.20
2023-01-07T13:26:06.597Z,23.20
2023-01-07T13:29:04.983Z,24.13
2023-01-07T13:32:01.189Z,23.97
2023-01-07T13:34:42.378Z,23.30
2023-01-07T13:37:28.115Z,25.23
2023-01-07T13:40:20.809Z,23.93
2023-01-07T13:42:57.068Z,24.87
2023-01-07T13:45:31.285Z,24.37
2023-01-07T13:48:05.461Z,23.83
2023-01-07T13:50:39.526Z,23.27
2023-01-07T13:53:31.546Z,24.70
2023-01-07T13:56:33.718Z,24.13
2023-01-07T13:59:04.240Z,26.37
2023-01-07T14:01:58.400Z,25.93
2023-01-07T14:04:49.535Z,24.57
2023-01-07T14:07:20.990Z,26.07
2023-01-07T14:09:51.615Z,25.67
2023-01-07T14:12:53.988Z,26.10
2023-01-07T14:15:45.458Z,24.37
2023-01-07T14:18:59.556Z,25.53
2023-01-07T14:21:48.115Z,27.93
2023-01-07T14:24:39.120Z,28.10
2023-01-07T14:27:31.763Z,26.70
2023-01-07T14:30:21.140Z,27.63
2023-01-07T14:33:00.893Z,28.30
2023-01-07T14:35:40.823Z,27.90
2023-01-07T14:38:53.874Z,28.50
2023-01-07T14:41:24.588Z,29.50
2023-01-07T14:44:28.943Z,29.33
2023-01-07T14:47:00.586Z,28.97
2023-01-07T14:49:57.411Z,29.97
2023-01-07T14:53:10.748Z,30.20
2023-01-07T14:56:02.675Z,32.40
2023-01-07T14:58:46.317Z,35.53
2023-01-07T15:01:43.858Z,36.63
2023-01-07T15:04:44.986Z,35.43
2023-01-07T15:07:23.762Z,35.33
2023-01-07T15:10:17.629Z,37.33
2023-01-07T15:13:19.280Z,39.87
2023-01-07T15:16:06.947Z,42.57
2023-01-07T15:18:49.364Z,41.87
2023-01-07T15:21:32.735Z,42.97
2023-01-07T15:24:11.467Z,43.53
2023-01-07T15:26:52.234Z,43.03
2023-01-07T15:29:35.979Z,40.70
2023-01-07T15:32:18.810Z,38.70
2023-01-07T15:34:50.028Z,37.67
2023-01-07T15:37:21.789Z,35.37
2023-01-07T15:39:58.357Z,34.97
2023-01-07T15:42:35.649Z,34.20
2023-01-07T15:45:18.259Z,34.67
2023-01-07T15:47:50.327Z,35.10
2023-01-07T15:50:32.431Z,32.97
2023-01-07T15:53:06.039Z,32.93
2023-01-07T15:55:41.567Z,33.57
2023-01-07T15:58:20.805Z,33.07
2023-01-07T16:01:06.180Z,33.07
2023-01-07T16:03:42.341Z,33.47
2023-01-07T16:06:34.474Z,33.90
2023-01-07T16:09:18.475Z,34.70
2023-01-07T16:11:51.197Z,35.23
2023-01-07T16:14:25.115Z,35.17
2023-01-07T16:17:20.612Z,36.50
2023-01-07T16:19:52.638Z,37.63
2023-01-07T16:22:25.360Z,37.93
2023-01-07T16:24:56.805Z,35.87
2023-01-07T16:27:31.121Z,37.13
2023-01-07T16:30:03.822Z,36.17
2023-01-07T16:32:35.472Z,39.10
2023-01-07T16:35:09.717Z,39.50
2023-01-07T16:37:42.779Z,40.27
2023-01-07T16:40:26.093Z,42.00
2023-01-07T16:42:56.622Z,48.90
2023-01-07T16:45:34.423Z,46.57
2023-01-07T16:48:20.033Z,54.17
2023-01-07T16:50:53.711Z,47.13
2023-01-07T16:53:30.596Z,96.97
2023-01-07T16:56:20.877Z,76.13
2023-01-07T16:58:54.268Z,60.07
2023-01-07T17:01:35.742Z,52.67
2023-01-07T17:04:11.922Z,55.23
2023-01-07T17:06:44.802Z,56.40
2023-01-07T17:09:28.535Z,52.90
2023-01-07T17:11:59.701Z,48.77
2023-01-07T17:14:52.229Z,49.40
2023-01-07T17:17:32.086Z,45.10
2023-01-07T17:20:16.016Z,40.93
2023-01-07T17:22:48.298Z,47.80
2023-01-07T17:25:23.832Z,56.23
2023-01-07T17:28:00.616Z,48.23
2023-01-07T17:30:37.991Z,45.70
2023-01-07T17:33:25.636Z,45.83
2023-01-07T17:35:58.117Z,46.40
2023-01-07T17:38:28.858Z,45.40
2023-01-07T17:40:59.835Z,42.50
2023-01-07T17:43:35.356Z,45.00
2023-01-07T17:46:08.092Z,45.60
2023-01-07T17:48:47.475Z,46.90
2023-01-07T17:51:18.175Z,44.40
2023-01-07T17:53:50.954Z,44.93
2023-01-07T17:56:22.598Z,42.63
2023-01-07T17:58:55.830Z,46.20
2023-01-07T18:01:28.407Z,49.27
2023-01-07T18:04:10.211Z,50.03
2023-01-07T18:06:42.250Z,44.70
2023-01-07T18:09:14.409Z,46.13
2023-01-07T18:12:04.918Z,46.23
2023-01-07T18:14:35.425Z,47.87
2023-01-07T18:17:07.198Z,52.30
2023-01-07T18:19:39.461Z,54.77
2023-01-07T18:22:10.319Z,56.30
2023-01-07T18:24:40.726Z,54.33
2023-01-07T18:27:12.305Z,57.07
2023-01-07T18:29:42.787Z,67.23
2023-01-07T18:32:13.950Z,61.87
2023-01-07T18:34:50.425Z,58.83
2023-01-07T18:37:21.245Z,62.87
2023-01-07T18:39:51.828Z,62.77
2023-01-07T18:42:22.290Z,63.13
2023-01-07T18:44:52.614Z,62.17
2023-01-07T18:47:22.946Z,63.17
2023-01-07T18:50:01.267Z,60.63
2023-01-07T18:52:35.068Z,62.23
2023-01-07T18:55:05.786Z,63.80
2023-01-07T18:57:36.321Z,64.90
2023-01-07T19:00:09.885Z,61.60
2023-01-07T19:02:40.340Z,61.13
2023-01-07T19:05:13.132Z,65.97
2023-01-07T19:07:43.962Z,65.07
2023-01-07T19:10:16.176Z,66.00
2023-01-07T19:12:46.758Z,71.93
2023-01-07T19:15:17.090Z,72.27
2023-01-07T19:17:47.197Z,74.83
2023-01-07T19:20:20.302Z,74.17
2023-01-07T19:22:50.819Z,72.30
2023-01-07T19:25:21.052Z,79.40
2023-01-07T19:27:51.261Z,80.83
2023-01-07T19:30:40.023Z,74.40
2023-01-07T19:33:10.445Z,67.70
2023-01-07T19:35:42.314Z,68.87
2023-01-07T19:38:13.449Z,77.37
2023-01-07T19:40:45.933Z,71.40
2023-01-07T19:43:16.765Z,69.47
2023-01-07T19:45:57.727Z,70.10
2023-01-07T19:48:28.892Z,64.83
2023-01-07T19:51:03.088Z,69.60
2023-01-07T19:53:34.845Z,67.77
2023-01-07T19:56:07.142Z,71.53
2023-01-07T19:58:38.258Z,73.47
2023-01-07T20:01:10.206Z,72.90
2023-01-07T20:03:41.159Z,71.17
2023-01-07T20:06:15.900Z,66.13
2023-01-07T20:08:47.131Z,81.67
2023-01-07T20:11:18.582Z,83.57
2023-01-07T20:13:50.242Z,71.90
2023-01-07T20:16:23.915Z,70.70
2023-01-07T20:18:57.040Z,71.07
2023-01-07T20:21:29.823Z,66.67
2023-01-07T20:24:00.881Z,82.10
2023-01-07T20:26:33.940Z,68.20
2023-01-07T20:29:04.571Z,76.27
2023-01-07T20:31:35.279Z,73.77
2023-01-07T20:34:05.752Z,68.30
2023-01-07T20:36:37.927Z,63.30
2023-01-07T20:39:08.124Z,59.90
2023-01-07T20:41:39.223Z,63.10
2023-01-07T20:44:11.229Z,76.07
2023-01-07T20:46:42.179Z,82.30
2023-01-07T20:49:13.038Z,72.63
2023-01-07T20:51:45.172Z,62.63
2023-01-07T20:54:15.487Z,61.93
2023-01-07T20:56:46.181Z,59.03
2023-01-07T20:59:16.581Z,62.40
2023-01-07T21:01:49.412Z,61.80
2023-01-07T21:04:19.854Z,60.53
2023-01-07T21:06:51.920Z,59.67
2023-01-07T21:09:22.357Z,61.73
2023-01-07T21:11:52.683Z,67.80
2023-01-07T21:14:23.608Z,135.63
2023-01-07T21:16:54.179Z,110.27
2023-01-07T21:19:24.878Z,88.00
2023-01-07T21:21:56.631Z,71.00
2023-01-07T21:24:27.254Z,68.43
2023-01-07T21:26:57.690Z,67.37
2023-01-07T21:29:28.004Z,66.83
2023-01-07T21:31:58.434Z,69.23
2023-01-07T21:34:28.958Z,67.50
2023-01-07T21:37:01.076Z,66.07
2023-01-07T21:39:31.249Z,64.67
2023-01-07T21:42:01.101Z,69.00
2023-01-07T21:44:32.110Z,72.10
2023-01-07T21:47:02.431Z,74.63
2023-01-07T21:49:33.552Z,71.20
2023-01-07T21:52:05.747Z,67.80
2023-01-07T21:54:36.379Z,69.53
2023-01-07T21:57:06.796Z,66.73
2023-01-07T21:59:37.229Z,61.70
2023-01-07T22:02:07.768Z,58.80
2023-01-07T22:04:41.153Z,55.47
2023-01-07T22:07:15.768Z,54.43
2023-01-07T22:09:47.234Z,51.23
2023-01-07T22:12:18.263Z,50.97
2023-01-07T22:14:48.559Z,49.60
2023-01-07T22:17:19.216Z,48.70
2023-01-07T22:19:49.535Z,48.13
2023-01-07T22:22:21.499Z,46.33
2023-01-07T22:24:51.727Z,47.27
2023-01-07T22:27:21.949Z,49.10
2023-01-07T22:29:52.792Z,46.00
2023-01-07T22:32:22.900Z,46.07
2023-01-07T22:34:53.121Z,44.97
2023-01-07T22:37:27.340Z,45.47
2023-01-07T22:40:00.536Z,46.80
2023-01-07T22:42:36.784Z,45.60
2023-01-07T22:45:13.833Z,46.40
2023-01-07T22:47:47.483Z,44.60
2023-01-07T22:50:18.408Z,47.80
2023-01-07T22:52:50.383Z,47.00
2023-01-07T22:55:20.809Z,43.77
2023-01-07T22:57:51.529Z,45.10
2023-01-07T23:00:43.060Z,46.53
2023-01-07T23:03:14.049Z,49.57
2023-01-07T23:05:44.415Z,47.90
2023-01-07T23:08:16.889Z,48.57
2023-01-07T23:10:47.322Z,50.63
2023-01-07T23:13:18.470Z,50.67
2023-01-07T23:15:48.682Z,49.87
2023-01-07T23:18:18.911Z,51.37
2023-01-07T23:20:49.032Z,52.27
2023-01-07T23:23:24.685Z,52.27
2023-01-07T23:25:55.103Z,57.13
2023-01-07T23:28:25.321Z,58.80
2023-01-07T23:30:55.561Z,57.97
2023-01-07T23:33:25.667Z,61.40
2023-01-07T23:36:03.051Z,62.20
2023-01-07T23:38:35.007Z,62.70
2023-01-07T23:41:06.779Z,65.43
2023-01-07T23:43:37.605Z,70.87
2023-01-07T23:46:10.355Z,69.43
2023-01-07T23:48:41.320Z,67.50
2023-01-07T23:51:13.491Z,68.00
2023-01-07T23:53:45.979Z,67.67
2023-01-07T23:56:19.171Z,68.23
2023-01-07T23:58:50.154Z,64.20
